createdAt,value
2022-10-15T00:02:23.803Z,101621.97
2022-10-15T00:04:53.997Z,101628.44
2022-10-15T00:07:21.844Z,101619.75
2022-10-15T00:09:49.589Z,101619.88
2022-10-15T00:12:18.409Z,101622.56
2022-10-15T00:14:47.923Z,101626.13
2022-10-15T00:17:15.298Z,101629.81
2022-10-15T00:19:44.070Z,101637.00
2022-10-15T00:22:11.527Z,101630.97
2022-10-15T00:24:38.897Z,101624.84
2022-10-15T00:27:06.551Z,101636.47
2022-10-15T00:29:34.475Z,101634.81
2022-10-15T00:32:05.011Z,101641.09
2022-10-15T00:34:33.847Z,101639.38
2022-10-15T00:37:03.245Z,101641.25
2022-10-15T00:39:30.690Z,101632.53
2022-10-15T00:41:58.385Z,101645.00
2022-10-15T00:44:26.698Z,101646.03
2022-10-15T00:47:15.078Z,101641.63
2022-10-15T00:50:11.830Z,101644.28
2022-10-15T00:52:44.930Z,101645.31
2022-10-15T00:55:19.508Z,101642.72
2022-10-15T00:57:48.909Z,101651.59
2022-10-15T01:00:18.356Z,101655.19
2022-10-15T01:02:50.688Z,101654.25
2022-10-15T01:05:18.778Z,101655.19
2022-10-15T01:07:47.168Z,101650.00
2022-10-15T01:10:16.793Z,101651.75
2022-10-15T01:13:21.613Z,101655.38
2022-10-15T01:16:01.229Z,101663.53
2022-10-15T01:18:35.888Z,101665.44
2022-10-15T01:21:28.324Z,101661.09
2022-10-15T01:24:24.373Z,101667.28
2022-10-15T01:27:14.929Z,101673.47
2022-10-15T01:30:01.224Z,101679.72
2022-10-15T01:32:30.632Z,101678.84
2022-10-15T01:35:33.107Z,101679.75
2022-10-15T01:38:08.894Z,101679.72
2022-10-15T01:40:59.152Z,101681.19
2022-10-15T01:43:44.448Z,101692.09
2022-10-15T01:46:16.860Z,101686.84
2022-10-15T01:48:46.305Z,101680.13
2022-10-15T01:51:15.229Z,101677.78
2022-10-15T01:53:44.297Z,101680.66
2022-10-15T01:56:14.767Z,101679.03
2022-10-15T01:58:43.758Z,101687.09
2022-10-15T02:01:11.852Z,101687.34
2022-10-15T02:03:52.895Z,101685.63
2022-10-15T02:06:34.386Z,101691.88
2022-10-15T02:09:13.508Z,101689.31
2022-10-15T02:12:15.351Z,101687.47
2022-10-15T02:14:52.217Z,101690.25
2022-10-15T02:17:31.291Z,101691.31
2022-10-15T02:20:23.833Z,101681.66
2022-10-15T02:22:57.124Z,101697.72
2022-10-15T02:25:26.118Z,101692.44
2022-10-15T02:27:55.934Z,101687.13
2022-10-15T02:30:27.419Z,101683.66
2022-10-15T02:32:56.865Z,101691.66
2022-10-15T02:35:25.077Z,101694.44
2022-10-15T02:37:54.429Z,101685.59
2022-10-15T02:40:23.151Z,101701.63
2022-10-15T02:42:52.059Z,101694.44
2022-10-15T02:45:20.855Z,101694.56
2022-10-15T02:47:48.661Z,101698.19
2022-10-15T02:50:16.012Z,101700.91
2022-10-15T02:52:43.388Z,101707.13
2022-10-15T02:55:10.759Z,101707.13
2022-10-15T02:57:38.519Z,101707.81
2022-10-15T03:00:06.773Z,101710.66
2022-10-15T03:02:34.221Z,101701.84
2022-10-15T03:05:01.629Z,101699.19
2022-10-15T03:07:29.140Z,101705.34
2022-10-15T03:09:56.600Z,101706.34
2022-10-15T03:12:26.062Z,101717.03
2022-10-15T03:14:53.905Z,101709.19
2022-10-15T03:17:21.597Z,101711.00
2022-10-15T03:19:50.868Z,101703.88
2022-10-15T03:22:18.736Z,101704.00
2022-10-15T03:24:46.057Z,101701.47
2022-10-15T03:27:13.516Z,101701.47
2022-10-15T03:29:42.509Z,101705.06
2022-10-15T03:32:13.448Z,101710.44
2022-10-15T03:34:40.929Z,101713.16
2022-10-15T03:37:08.341Z,101710.56
2022-10-15T03:39:35.591Z,101710.56
2022-10-15T03:42:02.959Z,101708.84
2022-10-15T03:44:30.360Z,101715.03
2022-10-15T03:46:57.545Z,101715.84
2022-10-15T03:49:24.819Z,101716.75
2022-10-15T03:51:52.064Z,101715.03
2022-10-15T03:54:19.379Z,101714.16
2022-10-15T03:56:46.794Z,101720.25
2022-10-15T03:59:14.371Z,101709.69
2022-10-15T04:01:42.010Z,101721.16
2022-10-15T04:04:11.356Z,101721.09
2022-10-15T04:06:40.415Z,101712.97
2022-10-15T04:09:11.391Z,101708.41
2022-10-15T04:11:39.975Z,101718.03
2022-10-15T04:14:07.247Z,101717.06
2022-10-15T04:16:34.754Z,101720.50
2022-10-15T04:19:07.402Z,101721.38
2022-10-15T04:21:39.045Z,101724.78
2022-10-15T04:24:06.549Z,101719.38
2022-10-15T04:26:34.143Z,101734.22
2022-10-15T04:29:01.655Z,101720.00
2022-10-15T04:31:29.989Z,101728.53
2022-10-15T04:33:58.002Z,101720.63
2022-10-15T04:36:25.193Z,101728.56
2022-10-15T04:38:55.730Z,101719.03
2022-10-15T04:41:25.987Z,101725.59
2022-10-15T04:43:53.539Z,101727.28
2022-10-15T04:46:22.379Z,101721.75
2022-10-15T04:48:50.141Z,101723.63
2022-10-15T04:51:20.852Z,101726.41
2022-10-15T04:53:49.465Z,101733.59
2022-10-15T04:56:19.593Z,101730.19
2022-10-15T04:58:48.614Z,101729.56
2022-10-15T05:01:18.688Z,101734.97
2022-10-15T05:03:47.655Z,101744.97
2022-10-15T05:06:17.963Z,101756.19
2022-10-15T05:08:46.689Z,101742.00
2022-10-15T05:11:21.998Z,101752.69
2022-10-15T05:13:53.166Z,101758.56
2022-10-15T05:16:24.280Z,101756.09
2022-10-15T05:19:00.918Z,101758.75
2022-10-15T05:21:28.962Z,101764.09
2022-10-15T05:23:56.319Z,101766.59
2022-10-15T05:26:25.602Z,101763.75
2022-10-15T05:28:53.095Z,101763.72
2022-10-15T05:31:30.922Z,101760.97
2022-10-15T05:33:59.214Z,101758.97
2022-10-15T05:36:29.323Z,101754.25
2022-10-15T05:39:01.662Z,101759.28
2022-10-15T05:41:29.788Z,101773.94
2022-10-15T05:43:58.279Z,101764.69
2022-10-15T05:46:28.439Z,101762.81
2022-10-15T05:48:57.667Z,101769.72
2022-10-15T05:51:26.866Z,101774.88
2022-10-15T05:53:55.398Z,101766.75
2022-10-15T05:56:23.286Z,101766.38
2022-10-15T05:58:53.420Z,101785.66
2022-10-15T06:01:25.517Z,101781.91
2022-10-15T06:03:53.207Z,101783.56
2022-10-15T06:06:26.318Z,101775.25
2022-10-15T06:08:54.706Z,101774.75
2022-10-15T06:11:23.225Z,101775.34
2022-10-15T06:13:50.429Z,101785.75
2022-10-15T06:16:23.537Z,101774.97
2022-10-15T06:18:57.333Z,101783.78
2022-10-15T06:21:25.724Z,101778.28
2022-10-15T06:23:53.194Z,101784.25
2022-10-15T06:26:20.477Z,101775.91
2022-10-15T06:28:48.027Z,101788.81
2022-10-15T06:31:15.432Z,101783.97
2022-10-15T06:33:45.332Z,101780.97
2022-10-15T06:36:14.011Z,101775.25
2022-10-15T06:38:44.278Z,101777.56
2022-10-15T06:41:11.690Z,101783.84
2022-10-15T06:43:44.200Z,101774.44
2022-10-15T06:46:11.704Z,101787.16
2022-10-15T06:48:39.739Z,101781.78
2022-10-15T06:51:07.372Z,101787.94
2022-10-15T06:53:34.882Z,101775.97
2022-10-15T06:56:03.923Z,101782.72
2022-10-15T06:58:33.220Z,101784.94
2022-10-15T07:01:06.055Z,101772.97
2022-10-15T07:03:36.250Z,101781.75
2022-10-15T07:06:05.415Z,101783.38
2022-10-15T07:08:38.822Z,101790.09
2022-10-15T07:11:09.507Z,101781.69
2022-10-15T07:13:37.614Z,101784.22
2022-10-15T07:16:13.412Z,101791.81
2022-10-15T07:18:40.885Z,101788.41
2022-10-15T07:21:11.807Z,101793.25
2022-10-15T07:23:39.843Z,101787.53
2022-10-15T07:26:08.348Z,101783.59
2022-10-15T07:28:48.541Z,101782.47
2022-10-15T07:31:16.494Z,101781.38
2022-10-15T07:33:46.878Z,101787.22
2022-10-15T07:36:15.411Z,101782.44
2022-10-15T07:38:45.900Z,101787.47
2022-10-15T07:41:15.917Z,101790.50
2022-10-15T07:43:45.615Z,101784.38
2022-10-15T07:46:16.146Z,101783.69
2022-10-15T07:48:43.458Z,101773.13
2022-10-15T07:51:12.125Z,101775.13
2022-10-15T07:53:39.672Z,101772.72
2022-10-15T07:56:11.636Z,101779.31
2022-10-15T07:58:40.647Z,101770.69
2022-10-15T08:01:11.743Z,101783.81
2022-10-15T08:03:39.338Z,101775.56
2022-10-15T08:06:08.334Z,101769.81
2022-10-15T08:08:36.589Z,101773.97
2022-10-15T08:11:10.484Z,101770.06
2022-10-15T08:13:42.165Z,101766.03
2022-10-15T08:16:12.706Z,101766.38
2022-10-15T08:18:40.346Z,101765.03
2022-10-15T08:21:08.392Z,101763.88
2022-10-15T08:23:36.007Z,101759.63
2022-10-15T08:26:03.942Z,101757.16
2022-10-15T08:28:32.548Z,101755.53
2022-10-15T08:31:05.565Z,101751.00
2022-10-15T08:33:35.012Z,101758.50
2022-10-15T08:36:06.559Z,101751.59
2022-10-15T08:38:35.537Z,101761.00
2022-10-15T08:41:04.836Z,101763.44
2022-10-15T08:43:38.275Z,101750.72
2022-10-15T08:46:23.023Z,101752.13
2022-10-15T08:48:54.452Z,101763.81
2022-10-15T08:51:24.733Z,101761.69
2022-10-15T08:53:56.337Z,101766.31
2022-10-15T08:56:42.531Z,101751.75
2022-10-15T08:59:28.660Z,101746.06
2022-10-15T09:01:59.480Z,101745.22
2022-10-15T09:04:50.585Z,101743.75
2022-10-15T09:07:30.232Z,101748.97
2022-10-15T09:10:07.964Z,101740.38
2022-10-15T09:12:57.193Z,101735.47
2022-10-15T09:15:31.090Z,101740.94
2022-10-15T09:17:58.395Z,101742.09
2022-10-15T09:20:32.223Z,101750.59
2022-10-15T09:22:59.708Z,101747.91
2022-10-15T09:25:33.722Z,101743.75
2022-10-15T09:28:08.241Z,101737.78
2022-10-15T09:30:43.791Z,101730.19
2022-10-15T09:33:22.757Z,101734.50
2022-10-15T09:36:00.560Z,101715.22
2022-10-15T09:38:44.999Z,101722.41
2022-10-15T09:41:41.834Z,101734.00
2022-10-15T09:44:13.875Z,101743.34
2022-10-15T09:46:49.331Z,101731.69
2022-10-15T09:49:21.291Z,101724.44
2022-10-15T09:52:02.038Z,101728.78
2022-10-15T09:54:44.031Z,101730.19
2022-10-15T09:57:16.047Z,101718.66
2022-10-15T09:59:58.121Z,101722.22
2022-10-15T10:02:28.507Z,101713.03
2022-10-15T10:04:56.293Z,101703.47
2022-10-15T10:07:35.765Z,101719.16
2022-10-15T10:10:24.711Z,101712.25
2022-10-15T10:12:52.601Z,101710.53
2022-10-15T10:15:41.666Z,101716.72
2022-10-15T10:18:19.842Z,101702.94
2022-10-15T10:20:57.407Z,101695.69
2022-10-15T10:23:32.006Z,101707.34
2022-10-15T10:25:59.931Z,101694.13
2022-10-15T10:28:32.220Z,101696.16
2022-10-15T10:31:05.228Z,101698.41
2022-10-15T10:33:42.254Z,101695.25
2022-10-15T10:36:30.751Z,101687.81
2022-10-15T10:39:28.198Z,101694.56
2022-10-15T10:42:06.560Z,101693.16
2022-10-15T10:44:46.401Z,101692.56
2022-10-15T10:47:20.553Z,101690.97
2022-10-15T10:49:56.339Z,101697.63
2022-10-15T10:52:26.738Z,101691.28
2022-10-15T10:55:02.891Z,101696.34
2022-10-15T10:57:35.723Z,101690.66
2022-10-15T11:00:04.875Z,101690.31
2022-10-15T11:02:34.072Z,101687.19
2022-10-15T11:05:01.855Z,101686.25
2022-10-15T11:07:35.245Z,101684.09
2022-10-15T11:10:25.325Z,101678.69
2022-10-15T11:13:18.712Z,101676.22
2022-10-15T11:15:53.793Z,101682.94
2022-10-15T11:18:25.087Z,101675.34
2022-10-15T11:21:19.730Z,101677.19
2022-10-15T11:24:05.753Z,101668.53
2022-10-15T11:26:59.280Z,101674.81
2022-10-15T11:30:05.591Z,101669.19
2022-10-15T11:33:05.591Z,101677.94
2022-10-15T11:35:52.826Z,101677.72
2022-10-15T11:38:30.665Z,101670.28
2022-10-15T11:41:19.617Z,101666.06
2022-10-15T11:44:40.913Z,101670.69
2022-10-15T11:47:34.663Z,101671.91
2022-10-15T11:50:22.651Z,101673.50
2022-10-15T11:52:55.624Z,101668.88
2022-10-15T11:55:41.521Z,101674.03
2022-10-15T11:58:16.375Z,101685.28
2022-10-15T12:00:50.436Z,101680.88
2022-10-15T12:03:24.950Z,101678.03
2022-10-15T12:05:55.489Z,101676.00
2022-10-15T12:08:24.098Z,101679.34
2022-10-15T12:11:01.279Z,101678.25
2022-10-15T12:13:55.519Z,101675.47
2022-10-15T12:16:55.332Z,101665.31
2022-10-15T12:19:27.224Z,101668.63
2022-10-15T12:21:54.456Z,101669.41
2022-10-15T12:24:45.142Z,101667.69
2022-10-15T12:27:36.151Z,101679.56
2022-10-15T12:30:03.345Z,101672.66
2022-10-15T12:32:31.602Z,101671.00
2022-10-15T12:35:01.151Z,101667.56
2022-10-15T12:37:30.021Z,101671.25
2022-10-15T12:40:03.780Z,101665.72
2022-10-15T12:42:35.080Z,101666.16
2022-10-15T12:45:06.690Z,101663.66
2022-10-15T12:47:50.027Z,101679.13
2022-10-15T12:50:22.942Z,101674.59
2022-10-15T12:52:57.872Z,101670.28
2022-10-15T12:55:36.169Z,101673.19
2022-10-15T12:58:26.474Z,101677.72
2022-10-15T13:00:53.746Z,101676.00
2022-10-15T13:03:32.395Z,101674.47
2022-10-15T13:06:21.186Z,101672.97
2022-10-15T13:08:54.760Z,101675.66
2022-10-15T13:11:45.125Z,101670.38
2022-10-15T13:14:12.422Z,101679.69
2022-10-15T13:16:45.106Z,101675.34
2022-10-15T13:19:39.567Z,101668.41
2022-10-15T13:22:21.905Z,101672.09
2022-10-15T13:24:49.342Z,101662.56
2022-10-15T13:27:30.080Z,101665.50
2022-10-15T13:30:04.581Z,101659.75
2022-10-15T13:32:55.547Z,101659.63
2022-10-15T13:35:31.379Z,101668.72
2022-10-15T13:37:59.881Z,101657.06
2022-10-15T13:40:28.869Z,101667.50
2022-10-15T13:43:03.472Z,101658.53
2022-10-15T13:45:31.356Z,101662.78
2022-10-15T13:47:58.944Z,101663.78
2022-10-15T13:50:37.233Z,101658.78
2022-10-15T13:53:22.881Z,101657.34
2022-10-15T13:55:56.862Z,101657.59
2022-10-15T13:58:29.653Z,101665.78
2022-10-15T14:01:03.699Z,101665.88
2022-10-15T14:03:32.502Z,101656.91
2022-10-15T14:06:21.212Z,101661.53
2022-10-15T14:08:50.804Z,101657.53
2022-10-15T14:11:19.125Z,101649.94
2022-10-15T14:13:57.142Z,101651.19
2022-10-15T14:16:41.035Z,101652.69
2022-10-15T14:19:15.688Z,101657.41
2022-10-15T14:21:47.284Z,101665.81
2022-10-15T14:24:19.120Z,101656.41
2022-10-15T14:26:47.355Z,101657.56
2022-10-15T14:29:38.965Z,101654.69
2022-10-15T14:32:29.665Z,101652.19
2022-10-15T14:35:00.942Z,101658.84
2022-10-15T14:37:42.999Z,101658.47
2022-10-15T14:40:10.935Z,101653.25
2022-10-15T14:42:40.489Z,101651.81
2022-10-15T14:45:28.798Z,101665.03
2022-10-15T14:47:58.117Z,101660.00
2022-10-15T14:50:30.127Z,101671.38
2022-10-15T14:52:58.803Z,101670.84
2022-10-15T14:55:33.481Z,101666.69
2022-10-15T14:58:08.089Z,101667.78
2022-10-15T15:00:42.120Z,101665.44
2022-10-15T15:03:21.343Z,101659.59
2022-10-15T15:05:52.901Z,101665.22
2022-10-15T15:08:21.157Z,101679.84
2022-10-15T15:13:27.337Z,101677.97
2022-10-15T15:15:56.981Z,101683.38
2022-10-15T15:18:24.756Z,101687.19
2022-10-15T15:20:55.040Z,101686.50
2022-10-15T15:23:24.748Z,101692.28
2022-10-15T15:25:54.177Z,101698.00
2022-10-15T15:28:24.886Z,101700.31
2022-10-15T15:30:58.996Z,101701.44
2022-10-15T15:33:28.353Z,101695.38
2022-10-15T15:36:01.197Z,101696.56
2022-10-15T15:38:31.546Z,101704.75
2022-10-15T15:41:04.912Z,101703.28
2022-10-15T15:43:35.035Z,101711.63
2022-10-15T15:46:02.565Z,101700.22
2022-10-15T15:48:32.257Z,101707.63
2022-10-15T15:51:05.685Z,101719.31
2022-10-15T15:53:33.297Z,101720.44
2022-10-15T15:56:00.680Z,101724.53
2022-10-15T15:58:28.141Z,101720.13
2022-10-15T16:00:56.156Z,101714.13
2022-10-15T16:03:26.389Z,101727.66
2022-10-15T16:05:55.359Z,101726.00
2022-10-15T16:08:22.612Z,101726.72
2022-10-15T16:11:09.887Z,101729.81
2022-10-15T16:13:38.672Z,101728.25
2022-10-15T16:16:06.179Z,101724.78
2022-10-15T16:18:34.145Z,101736.63
2022-10-15T16:21:09.041Z,101740.44
2022-10-15T16:23:36.739Z,101740.53
2022-10-15T16:26:03.939Z,101735.31
2022-10-15T16:28:32.407Z,101732.84
2022-10-15T16:31:29.647Z,101733.47
2022-10-15T16:33:58.053Z,101740.66
2022-10-15T16:36:26.425Z,101739.78
2022-10-15T16:38:57.689Z,101745.16
2022-10-15T16:41:25.167Z,101728.50
2022-10-15T16:43:53.098Z,101738.63
2022-10-15T16:46:23.257Z,101738.78
2022-10-15T16:48:55.120Z,101737.09
2022-10-15T16:51:25.282Z,101738.16
2022-10-15T16:53:52.679Z,101741.94
2022-10-15T16:56:22.835Z,101748.19
2022-10-15T16:58:50.913Z,101750.97
2022-10-15T17:01:21.560Z,101746.63
2022-10-15T17:03:49.782Z,101738.88
2022-10-15T17:06:21.804Z,101749.84
2022-10-15T17:08:50.611Z,101753.88
2022-10-15T17:11:22.377Z,101758.88
2022-10-15T17:13:53.319Z,101749.06
2022-10-15T17:16:32.846Z,101753.81
2022-10-15T17:19:01.100Z,101747.78
2022-10-15T17:21:29.801Z,101751.50
2022-10-15T17:24:00.738Z,101745.34
2022-10-15T17:26:33.554Z,101750.22
2022-10-15T17:29:05.094Z,101748.16
2022-10-15T17:31:32.711Z,101762.84
2022-10-15T17:34:07.055Z,101753.19
2022-10-15T17:36:43.159Z,101757.03
2022-10-15T17:39:13.028Z,101766.56
2022-10-15T17:41:41.580Z,101763.88
2022-10-15T17:44:10.350Z,101752.34
2022-10-15T17:46:38.699Z,101757.59
2022-10-15T17:49:06.052Z,101766.13
2022-10-15T17:51:34.936Z,101761.34
2022-10-15T17:54:02.566Z,101763.63
2022-10-15T17:56:31.813Z,101766.38
2022-10-15T17:59:02.142Z,101768.34
2022-10-15T18:04:23.318Z,101768.09
2022-10-15T18:06:50.562Z,101771.00
2022-10-15T18:09:18.519Z,101776.69
2022-10-15T18:11:49.118Z,101778.75
2022-10-15T18:14:18.573Z,101778.03
2022-10-15T18:16:46.027Z,101776.25
2022-10-15T18:19:14.250Z,101772.50
2022-10-15T18:21:44.367Z,101776.88
2022-10-15T18:24:14.609Z,101766.09
2022-10-15T18:26:41.930Z,101774.00
2022-10-15T18:29:09.116Z,101771.13
2022-10-15T18:31:37.363Z,101764.91
2022-10-15T18:34:04.641Z,101777.41
2022-10-15T18:36:33.495Z,101775.53
2022-10-15T18:39:00.816Z,101781.69
2022-10-15T18:41:30.208Z,101786.03
2022-10-15T18:43:59.627Z,101781.50
2022-10-15T18:46:30.843Z,101782.91
2022-10-15T18:48:59.540Z,101785.50
2022-10-15T18:51:29.811Z,101781.94
2022-10-15T18:53:59.707Z,101788.38
2022-10-15T18:56:31.109Z,101795.09
2022-10-15T18:58:58.319Z,101785.69
2022-10-15T19:01:25.806Z,101791.34
2022-10-15T19:04:07.554Z,101792.59
2022-10-15T19:06:43.462Z,101800.94
2022-10-15T19:09:17.510Z,101795.13
2022-10-15T19:11:48.128Z,101813.19
2022-10-15T19:14:16.646Z,101819.66
2022-10-15T19:16:45.897Z,101816.41
2022-10-15T19:19:17.969Z,101819.38
2022-10-15T19:21:46.654Z,101825.06
2022-10-15T19:24:15.319Z,101821.84
2022-10-15T19:26:46.707Z,101827.41
2022-10-15T19:29:16.425Z,101832.06
2022-10-15T19:31:45.713Z,101834.94
2022-10-15T19:34:19.259Z,101835.13
2022-10-15T19:36:51.257Z,101830.81
2022-10-15T19:39:21.685Z,101833.66
2022-10-15T19:41:51.563Z,101840.75
2022-10-15T19:44:25.394Z,101839.22
2022-10-15T19:46:55.281Z,101852.91
2022-10-15T19:49:24.960Z,101852.25
2022-10-15T19:51:52.457Z,101850.72
2022-10-15T19:54:19.872Z,101852.78
2022-10-15T19:57:07.009Z,101852.19
2022-10-15T19:59:34.209Z,101852.34
2022-10-15T20:02:01.412Z,101848.94
2022-10-15T20:04:28.684Z,101860.66
2022-10-15T20:06:58.068Z,101856.38
2022-10-15T20:09:25.629Z,101861.75
2022-10-15T20:11:52.888Z,101852.13
2022-10-15T20:14:22.653Z,101854.88
2022-10-15T20:16:52.709Z,101855.13
2022-10-15T20:19:21.936Z,101856.25
2022-10-15T20:21:50.846Z,101857.28
2022-10-15T20:24:18.155Z,101856.59
2022-10-15T20:26:45.325Z,101859.31
2022-10-15T20:29:17.311Z,101858.66
2022-10-15T20:31:44.723Z,101859.63
2022-10-15T20:34:12.020Z,101859.47
2022-10-15T20:36:41.489Z,101866.03
2022-10-15T20:39:09.086Z,101860.81
2022-10-15T20:41:36.386Z,101860.88
2022-10-15T20:44:05.568Z,101859.47
2022-10-15T20:46:37.661Z,101869.88
2022-10-15T20:49:09.695Z,101864.47
2022-10-15T20:51:40.165Z,101867.53
2022-10-15T20:54:10.877Z,101859.06
2022-10-15T20:56:38.856Z,101871.59
2022-10-15T20:59:07.741Z,101870.81
2022-10-15T21:01:36.728Z,101870.19
2022-10-15T21:04:04.736Z,101869.31
2022-10-15T21:06:32.772Z,101863.06
2022-10-15T21:09:00.860Z,101860.63
2022-10-15T21:11:28.556Z,101865.31
2022-10-15T21:13:55.975Z,101873.81
2022-10-15T21:16:25.915Z,101861.25
2022-10-15T21:18:57.036Z,101858.50
2022-10-15T21:21:24.437Z,101866.16
2022-10-15T21:23:55.593Z,101867.16
2022-10-15T21:26:23.004Z,101855.59
2022-10-15T21:29:14.950Z,101865.44
2022-10-15T21:31:43.564Z,101866.16
2022-10-15T21:34:14.999Z,101866.41
2022-10-15T21:36:45.257Z,101867.31
2022-10-15T21:39:12.521Z,101868.69
2022-10-15T21:41:39.970Z,101869.03
2022-10-15T21:44:08.161Z,101870.41
2022-10-15T21:46:36.334Z,101882.19
2022-10-15T21:49:04.136Z,101875.31
2022-10-15T21:51:33.815Z,101878.28
2022-10-15T21:54:02.386Z,101881.09
2022-10-15T21:56:31.703Z,101875.13
2022-10-15T21:58:59.256Z,101879.50
2022-10-15T22:01:34.631Z,101878.72
2022-10-15T22:04:12.189Z,101881.50
2022-10-15T22:06:40.202Z,101885.25
2022-10-15T22:09:09.019Z,101885.25
2022-10-15T22:11:41.257Z,101888.91
2022-10-15T22:14:12.261Z,101889.66
2022-10-15T22:16:41.279Z,101900.97
2022-10-15T22:19:11.504Z,101893.47
2022-10-15T22:21:39.340Z,101895.06
2022-10-15T22:24:17.502Z,101894.78
2022-10-15T22:26:50.903Z,101904.88
2022-10-15T22:29:20.726Z,101900.09
2022-10-15T22:31:49.018Z,101904.91
2022-10-15T22:34:17.317Z,101895.84
2022-10-15T22:36:45.108Z,101904.44
2022-10-15T22:39:14.804Z,101899.72
2022-10-15T22:41:44.799Z,101899.47
2022-10-15T22:44:19.981Z,101901.28
2022-10-15T22:46:49.606Z,101893.34
2022-10-15T22:49:19.748Z,101904.97
2022-10-15T22:51:47.962Z,101901.44
2022-10-15T22:54:17.225Z,101903.41
2022-10-15T22:56:45.383Z,101899.19
2022-10-15T22:59:18.301Z,101897.63
2022-10-15T23:01:45.794Z,101910.22
2022-10-15T23:04:15.193Z,101907.69
2022-10-15T23:06:45.596Z,101915.72
2022-10-15T23:09:18.017Z,101907.78
2022-10-15T23:11:46.603Z,101912.41
2022-10-15T23:14:16.129Z,101908.03
2022-10-15T23:16:45.788Z,101908.09
2022-10-15T23:19:21.031Z,101909.13
2022-10-15T23:21:52.961Z,101912.78
2022-10-15T23:24:22.229Z,101919.13
2022-10-15T23:26:49.893Z,101921.06
2022-10-15T23:29:20.283Z,101925.56
2022-10-15T23:31:48.379Z,101921.22
2022-10-15T23:34:23.871Z,101925.75
2022-10-15T23:36:51.194Z,101931.25
2022-10-15T23:39:24.633Z,101928.00
2022-10-15T23:41:52.439Z,101928.25
2022-10-15T23:44:25.634Z,101926.75
2022-10-15T23:46:54.816Z,101931.47
2022-10-15T23:49:22.127Z,101929.78
2022-10-15T23:51:49.382Z,101930.63
2022-10-15T23:54:18.348Z,101934.19
2022-10-15T23:56:47.160Z,101934.31
2022-10-15T23:59:15.358Z,101921.97
